sensor_id;sensor_type;location;lat;lon;timestamp;P1;durP1;ratioP1;P2;durP2;ratioP2
56999;SDS011;42891;50.006;21.964;2022-07-11T00:01:27;4.22;;;1.20;;
56999;SDS011;42891;50.006;21.964;2022-07-11T00:05:27;2.60;;;1.13;;
56999;SDS011;42891;50.006;21.964;2022-07-11T00:09:28;2.20;;;1.10;;
56999;SDS011;42891;50.006;21.964;2022-07-11T00:13:28;3.45;;;1.15;;
56999;SDS011;42891;50.006;21.964;2022-07-11T00:17:29;3.92;;;1.00;;
56999;SDS011;42891;50.006;21.964;2022-07-11T00:21:29;1.40;;;1.10;;
56999;SDS011;42891;50.006;21.964;2022-07-11T00:25:29;1.73;;;1.07;;
56999;SDS011;42891;50.006;21.964;2022-07-11T00:29:30;1.40;;;1.05;;
56999;SDS011;42891;50.006;21.964;2022-07-11T00:33:31;1.85;;;1.20;;
56999;SDS011;42891;50.006;21.964;2022-07-11T00:37:31;3.43;;;1.20;;
56999;SDS011;42891;50.006;21.964;2022-07-11T00:41:31;2.25;;;1.00;;
56999;SDS011;42891;50.006;21.964;2022-07-11T00:45:32;1.58;;;1.08;;
56999;SDS011;42891;50.006;21.964;2022-07-11T00:49:33;1.42;;;1.17;;
56999;SDS011;42891;50.006;21.964;2022-07-11T00:53:33;3.13;;;1.10;;
56999;SDS011;42891;50.006;21.964;2022-07-11T00:57:34;2.22;;;1.35;;
56999;SDS011;42891;50.006;21.964;2022-07-11T01:01:37;3.33;;;1.60;;
56999;SDS011;42891;50.006;21.964;2022-07-11T01:05:38;1.58;;;1.30;;
56999;SDS011;42891;50.006;21.964;2022-07-11T01:09:38;2.92;;;1.40;;
56999;SDS011;42891;50.006;21.964;2022-07-11T01:13:39;1.92;;;1.63;;
56999;SDS011;42891;50.006;21.964;2022-07-11T01:17:40;2.22;;;1.45;;
56999;SDS011;42891;50.006;21.964;2022-07-11T01:21:40;3.60;;;1.53;;
56999;SDS011;42891;50.006;21.964;2022-07-11T01:25:43;1.98;;;1.50;;
56999;SDS011;42891;50.006;21.964;2022-07-11T01:29:44;4.40;;;1.52;;
56999;SDS011;42891;50.006;21.964;2022-07-11T01:33:44;2.33;;;1.42;;
56999;SDS011;42891;50.006;21.964;2022-07-11T01:37:44;3.58;;;1.50;;
56999;SDS011;42891;50.006;21.964;2022-07-11T01:41:45;2.90;;;1.50;;
56999;SDS011;42891;50.006;21.964;2022-07-11T01:45:45;4.20;;;1.50;;
56999;SDS011;42891;50.006;21.964;2022-07-11T01:49:45;2.03;;;1.30;;
56999;SDS011;42891;50.006;21.964;2022-07-11T01:53:45;2.63;;;1.30;;
56999;SDS011;42891;50.006;21.964;2022-07-11T01:57:46;2.00;;;1.30;;
56999;SDS011;42891;50.006;21.964;2022-07-11T02:01:46;2.63;;;1.40;;
56999;SDS011;42891;50.006;21.964;2022-07-11T02:05:46;4.03;;;1.77;;
56999;SDS011;42891;50.006;21.964;2022-07-11T02:09:47;4.75;;;1.42;;
56999;SDS011;42891;50.006;21.964;2022-07-11T02:13:47;2.27;;;1.23;;
56999;SDS011;42891;50.006;21.964;2022-07-11T02:17:47;2.63;;;1.67;;
56999;SDS011;42891;50.006;21.964;2022-07-11T02:21:48;3.47;;;1.92;;
56999;SDS011;42891;50.006;21.964;2022-07-11T02:25:48;3.05;;;1.60;;
56999;SDS011;42891;50.006;21.964;2022-07-11T02:29:49;2.15;;;1.70;;
56999;SDS011;42891;50.006;21.964;2022-07-11T02:33:49;1.80;;;1.43;;
56999;SDS011;42891;50.006;21.964;2022-07-11T02:37:49;4.47;;;1.80;;
56999;SDS011;42891;50.006;21.964;2022-07-11T02:41:50;4.18;;;2.08;;
56999;SDS011;42891;50.006;21.964;2022-07-11T02:45:50;3.93;;;1.83;;
56999;SDS011;42891;50.006;21.964;2022-07-11T02:49:50;2.47;;;1.63;;
56999;SDS011;42891;50.006;21.964;2022-07-11T02:53:51;3.00;;;1.63;;
56999;SDS011;42891;50.006;21.964;2022-07-11T02:57:52;4.53;;;1.50;;
56999;SDS011;42891;50.006;21.964;2022-07-11T03:01:53;5.60;;;2.42;;
56999;SDS011;42891;50.006;21.964;2022-07-11T03:05:54;4.18;;;1.85;;
56999;SDS011;42891;50.006;21.964;2022-07-11T03:09:54;3.28;;;1.70;;
56999;SDS011;42891;50.006;21.964;2022-07-11T03:13:55;4.38;;;1.80;;
56999;SDS011;42891;50.006;21.964;2022-07-11T03:17:55;1.63;;;1.53;;
56999;SDS011;42891;50.006;21.964;2022-07-11T03:21:56;4.25;;;1.83;;
56999;SDS011;42891;50.006;21.964;2022-07-11T03:25:56;3.85;;;1.63;;
56999;SDS011;42891;50.006;21.964;2022-07-11T03:29:56;3.37;;;1.60;;
56999;SDS011;42891;50.006;21.964;2022-07-11T03:33:57;4.28;;;1.75;;
56999;SDS011;42891;50.006;21.964;2022-07-11T03:37:57;5.37;;;2.10;;
56999;SDS011;42891;50.006;21.964;2022-07-11T03:41:58;4.73;;;2.17;;
56999;SDS011;42891;50.006;21.964;2022-07-11T03:45:58;4.25;;;2.03;;
56999;SDS011;42891;50.006;21.964;2022-07-11T03:49:59;4.40;;;2.45;;
56999;SDS011;42891;50.006;21.964;2022-07-11T03:54:00;6.47;;;2.47;;
56999;SDS011;42891;50.006;21.964;2022-07-11T03:58:00;4.75;;;2.40;;
56999;SDS011;42891;50.006;21.964;2022-07-11T04:02:01;3.05;;;2.05;;
56999;SDS011;42891;50.006;21.964;2022-07-11T04:06:01;8.27;;;2.40;;
56999;SDS011;42891;50.006;21.964;2022-07-11T04:10:02;3.63;;;2.60;;
56999;SDS011;42891;50.006;21.964;2022-07-11T04:14:02;3.60;;;2.38;;
56999;SDS011;42891;50.006;21.964;2022-07-11T04:18:03;3.45;;;2.90;;
56999;SDS011;42891;50.006;21.964;2022-07-11T04:22:03;3.75;;;2.60;;
56999;SDS011;42891;50.006;21.964;2022-07-11T04:26:04;2.75;;;2.35;;
56999;SDS011;42891;50.006;21.964;2022-07-11T04:30:04;4.53;;;2.70;;
56999;SDS011;42891;50.006;21.964;2022-07-11T04:34:05;4.40;;;2.90;;
56999;SDS011;42891;50.006;21.964;2022-07-11T04:38:06;4.28;;;2.67;;
56999;SDS011;42891;50.006;21.964;2022-07-11T04:42:06;9.82;;;2.95;;
56999;SDS011;42891;50.006;21.964;2022-07-11T04:46:06;5.97;;;2.67;;
56999;SDS011;42891;50.006;21.964;2022-07-11T04:50:07;4.50;;;2.50;;
56999;SDS011;42891;50.006;21.964;2022-07-11T04:54:08;5.47;;;2.42;;
56999;SDS011;42891;50.006;21.964;2022-07-11T04:58:08;2.92;;;2.33;;
56999;SDS011;42891;50.006;21.964;2022-07-11T05:02:09;5.35;;;2.60;;
56999;SDS011;42891;50.006;21.964;2022-07-11T05:06:09;3.38;;;2.28;;
56999;SDS011;42891;50.006;21.964;2022-07-11T05:10:09;4.37;;;2.00;;
56999;SDS011;42891;50.006;21.964;2022-07-11T05:14:10;3.92;;;1.67;;
56999;SDS011;42891;50.006;21.964;2022-07-11T05:18:10;5.53;;;1.98;;
56999;SDS011;42891;50.006;21.964;2022-07-11T05:22:11;4.03;;;1.50;;
56999;SDS011;42891;50.006;21.964;2022-07-11T05:26:11;1.97;;;1.30;;
56999;SDS011;42891;50.006;21.964;2022-07-11T05:30:11;3.08;;;1.58;;
56999;SDS011;42891;50.006;21.964;2022-07-11T05:34:12;5.65;;;1.88;;
56999;SDS011;42891;50.006;21.964;2022-07-11T05:38:12;2.97;;;1.80;;
56999;SDS011;42891;50.006;21.964;2022-07-11T05:42:12;4.20;;;1.70;;
56999;SDS011;42891;50.006;21.964;2022-07-11T05:46:14;2.88;;;1.55;;
56999;SDS011;42891;50.006;21.964;2022-07-11T05:50:14;4.07;;;1.50;;
56999;SDS011;42891;50.006;21.964;2022-07-11T05:54:15;2.38;;;1.52;;
56999;SDS011;42891;50.006;21.964;2022-07-11T05:58:16;3.03;;;1.55;;
56999;SDS011;42891;50.006;21.964;2022-07-11T06:02:16;3.00;;;1.90;;
56999;SDS011;42891;50.006;21.964;2022-07-11T06:06:18;6.10;;;1.80;;
56999;SDS011;42891;50.006;21.964;2022-07-11T06:10:19;2.97;;;1.67;;
56999;SDS011;42891;50.006;21.964;2022-07-11T06:14:19;2.55;;;1.50;;
56999;SDS011;42891;50.006;21.964;2022-07-11T06:18:19;2.85;;;1.70;;
56999;SDS011;42891;50.006;21.964;2022-07-11T06:22:20;4.20;;;1.88;;
56999;SDS011;42891;50.006;21.964;2022-07-11T06:26:21;5.90;;;1.73;;
56999;SDS011;42891;50.006;21.964;2022-07-11T06:30:21;6.15;;;1.70;;
56999;SDS011;42891;50.006;21.964;2022-07-11T06:34:22;4.05;;;2.10;;
56999;SDS011;42891;50.006;21.964;2022-07-11T06:38:22;4.10;;;1.70;;
56999;SDS011;42891;50.006;21.964;2022-07-11T06:42:22;1.95;;;1.27;;
56999;SDS011;42891;50.006;21.964;2022-07-11T06:46:23;2.07;;;1.40;;
56999;SDS011;42891;50.006;21.964;2022-07-11T06:50:23;4.85;;;1.30;;
56999;SDS011;42891;50.006;21.964;2022-07-11T06:54:24;2.55;;;1.00;;
56999;SDS011;42891;50.006;21.964;2022-07-11T06:58:24;3.17;;;1.55;;
56999;SDS011;42891;50.006;21.964;2022-07-11T07:02:33;2.75;;;1.30;;
56999;SDS011;42891;50.006;21.964;2022-07-11T07:06:35;3.25;;;1.40;;
56999;SDS011;42891;50.006;21.964;2022-07-11T07:10:35;3.30;;;1.40;;
56999;SDS011;42891;50.006;21.964;2022-07-11T07:14:35;1.83;;;1.00;;
56999;SDS011;42891;50.006;21.964;2022-07-11T07:18:35;5.47;;;1.37;;
56999;SDS011;42891;50.006;21.964;2022-07-11T07:22:38;3.42;;;1.35;;
56999;SDS011;42891;50.006;21.964;2022-07-11T07:26:38;4.07;;;1.30;;
56999;SDS011;42891;50.006;21.964;2022-07-11T07:30:39;3.47;;;1.23;;
56999;SDS011;42891;50.006;21.964;2022-07-11T07:34:39;4.18;;;1.25;;
56999;SDS011;42891;50.006;21.964;2022-07-11T07:38:40;3.47;;;1.48;;
56999;SDS011;42891;50.006;21.964;2022-07-11T07:42:43;2.63;;;1.48;;
56999;SDS011;42891;50.006;21.964;2022-07-11T07:46:43;1.90;;;1.20;;
56999;SDS011;42891;50.006;21.964;2022-07-11T07:50:44;4.57;;;1.23;;
56999;SDS011;42891;50.006;21.964;2022-07-11T07:54:45;4.93;;;1.30;;
56999;SDS011;42891;50.006;21.964;2022-07-11T07:58:45;2.63;;;1.08;;
56999;SDS011;42891;50.006;21.964;2022-07-11T08:02:46;3.08;;;1.40;;
56999;SDS011;42891;50.006;21.964;2022-07-11T08:06:47;2.72;;;1.40;;
56999;SDS011;42891;50.006;21.964;2022-07-11T08:10:48;2.45;;;1.05;;
56999;SDS011;42891;50.006;21.964;2022-07-11T08:14:48;3.78;;;1.48;;
56999;SDS011;42891;50.006;21.964;2022-07-11T08:18:49;3.20;;;1.47;;
56999;SDS011;42891;50.006;21.964;2022-07-11T08:22:50;3.53;;;1.58;;
56999;SDS011;42891;50.006;21.964;2022-07-11T08:26:50;3.15;;;1.40;;
56999;SDS011;42891;50.006;21.964;2022-07-11T08:30:50;6.87;;;2.13;;
56999;SDS011;42891;50.006;21.964;2022-07-11T08:34:51;4.70;;;1.80;;
56999;SDS011;42891;50.006;21.964;2022-07-11T08:38:51;2.70;;;1.60;;
56999;SDS011;42891;50.006;21.964;2022-07-11T08:42:51;6.67;;;1.93;;
56999;SDS011;42891;50.006;21.964;2022-07-11T08:46:55;6.20;;;1.50;;
56999;SDS011;42891;50.006;21.964;2022-07-11T08:50:57;3.30;;;1.52;;
56999;SDS011;42891;50.006;21.964;2022-07-11T08:54:59;5.68;;;1.73;;
56999;SDS011;42891;50.006;21.964;2022-07-11T08:58:59;3.85;;;1.63;;
56999;SDS011;42891;50.006;21.964;2022-07-11T09:03:00;5.07;;;1.60;;
56999;SDS011;42891;50.006;21.964;2022-07-11T09:07:00;6.40;;;2.00;;
56999;SDS011;42891;50.006;21.964;2022-07-11T09:11:01;6.40;;;1.92;;
56999;SDS011;42891;50.006;21.964;2022-07-11T09:15:01;5.47;;;2.13;;
56999;SDS011;42891;50.006;21.964;2022-07-11T09:19:02;3.53;;;1.65;;
56999;SDS011;42891;50.006;21.964;2022-07-11T09:23:20;5.78;;;1.60;;
56999;SDS011;42891;50.006;21.964;2022-07-11T09:27:40;6.07;;;1.90;;
56999;SDS011;42891;50.006;21.964;2022-07-11T09:31:42;2.70;;;2.00;;
56999;SDS011;42891;50.006;21.964;2022-07-11T09:35:47;7.60;;;2.07;;
56999;SDS011;42891;50.006;21.964;2022-07-11T09:39:47;7.18;;;2.50;;
56999;SDS011;42891;50.006;21.964;2022-07-11T09:43:50;5.15;;;2.65;;
56999;SDS011;42891;50.006;21.964;2022-07-11T09:47:51;3.00;;;1.70;;
56999;SDS011;42891;50.006;21.964;2022-07-11T09:51:53;2.00;;;1.17;;
56999;SDS011;42891;50.006;21.964;2022-07-11T09:55:53;1.88;;;1.10;;
56999;SDS011;42891;50.006;21.964;2022-07-11T09:59:54;1.80;;;0.80;;
56999;SDS011;42891;50.006;21.964;2022-07-11T10:03:55;1.70;;;1.05;;
56999;SDS011;42891;50.006;21.964;2022-07-11T10:07:56;1.15;;;0.90;;
56999;SDS011;42891;50.006;21.964;2022-07-11T10:11:57;1.65;;;0.70;;
56999;SDS011;42891;50.006;21.964;2022-07-11T10:15:58;1.17;;;0.80;;
56999;SDS011;42891;50.006;21.964;2022-07-11T10:29:00;3.97;;;2.10;;
56999;SDS011;42891;50.006;21.964;2022-07-11T10:33:05;2.20;;;2.00;;
56999;SDS011;42891;50.006;21.964;2022-07-11T10:37:07;3.00;;;2.22;;
56999;SDS011;42891;50.006;21.964;2022-07-11T10:41:20;3.65;;;1.88;;
56999;SDS011;42891;50.006;21.964;2022-07-11T10:45:21;4.82;;;1.95;;
56999;SDS011;42891;50.006;21.964;2022-07-11T10:49:36;4.03;;;1.63;;
56999;SDS011;42891;50.006;21.964;2022-07-11T10:53:48;5.72;;;2.05;;
56999;SDS011;42891;50.006;21.964;2022-07-11T10:58:08;3.65;;;1.75;;
56999;SDS011;42891;50.006;21.964;2022-07-11T11:02:19;4.70;;;1.55;;
56999;SDS011;42891;50.006;21.964;2022-07-11T11:06:20;3.60;;;1.40;;
56999;SDS011;42891;50.006;21.964;2022-07-11T11:10:56;4.32;;;1.25;;
56999;SDS011;42891;50.006;21.964;2022-07-11T11:15:31;2.28;;;1.20;;
56999;SDS011;42891;50.006;21.964;2022-07-11T11:24:03;3.08;;;1.33;;
56999;SDS011;42891;50.006;21.964;2022-07-11T11:28:06;2.45;;;1.35;;
56999;SDS011;42891;50.006;21.964;2022-07-11T11:32:08;2.88;;;1.30;;
56999;SDS011;42891;50.006;21.964;2022-07-11T11:36:09;2.05;;;1.13;;
56999;SDS011;42891;50.006;21.964;2022-07-11T11:40:12;2.03;;;1.02;;
56999;SDS011;42891;50.006;21.964;2022-07-11T11:44:12;2.40;;;1.05;;
56999;SDS011;42891;50.006;21.964;2022-07-11T11:48:25;2.53;;;0.80;;
56999;SDS011;42891;50.006;21.964;2022-07-11T11:52:27;2.10;;;0.98;;
56999;SDS011;42891;50.006;21.964;2022-07-11T11:56:29;5.43;;;1.08;;
56999;SDS011;42891;50.006;21.964;2022-07-11T12:00:32;5.60;;;1.05;;
56999;SDS011;42891;50.006;21.964;2022-07-11T12:04:33;8.77;;;1.50;;
56999;SDS011;42891;50.006;21.964;2022-07-11T12:08:36;4.05;;;1.33;;
56999;SDS011;42891;50.006;21.964;2022-07-11T12:12:36;4.00;;;1.50;;
56999;SDS011;42891;50.006;21.964;2022-07-11T12:16:47;4.47;;;1.75;;
56999;SDS011;42891;50.006;21.964;2022-07-11T12:20:48;2.35;;;1.48;;
56999;SDS011;42891;50.006;21.964;2022-07-11T12:24:49;4.55;;;1.60;;
56999;SDS011;42891;50.006;21.964;2022-07-11T12:29:08;3.58;;;1.60;;
56999;SDS011;42891;50.006;21.964;2022-07-11T12:33:12;2.60;;;1.77;;
56999;SDS011;42891;50.006;21.964;2022-07-11T12:37:14;2.95;;;1.80;;
56999;SDS011;42891;50.006;21.964;2022-07-11T12:41:19;2.15;;;1.60;;
56999;SDS011;42891;50.006;21.964;2022-07-11T12:45:19;2.53;;;1.55;;
56999;SDS011;42891;50.006;21.964;2022-07-11T12:49:20;2.15;;;1.33;;
56999;SDS011;42891;50.006;21.964;2022-07-11T12:53:28;2.78;;;1.42;;
56999;SDS011;42891;50.006;21.964;2022-07-11T12:57:29;3.47;;;1.58;;
56999;SDS011;42891;50.006;21.964;2022-07-11T13:01:29;4.03;;;1.77;;
56999;SDS011;42891;50.006;21.964;2022-07-11T13:09:50;1.95;;;1.55;;
56999;SDS011;42891;50.006;21.964;2022-07-11T13:13:51;5.03;;;1.83;;
56999;SDS011;42891;50.006;21.964;2022-07-11T13:17:52;3.05;;;1.80;;
56999;SDS011;42891;50.006;21.964;2022-07-11T13:21:53;5.57;;;1.90;;
56999;SDS011;42891;50.006;21.964;2022-07-11T13:25:53;3.05;;;1.63;;
56999;SDS011;42891;50.006;21.964;2022-07-11T13:29:55;2.47;;;1.70;;
56999;SDS011;42891;50.006;21.964;2022-07-11T13:33:56;2.30;;;1.48;;
56999;SDS011;42891;50.006;21.964;2022-07-11T13:37:56;3.05;;;1.50;;
56999;SDS011;42891;50.006;21.964;2022-07-11T13:41:57;3.50;;;1.40;;
56999;SDS011;42891;50.006;21.964;2022-07-11T13:45:57;2.45;;;1.70;;
56999;SDS011;42891;50.006;21.964;2022-07-11T13:49:58;2.25;;;1.33;;
56999;SDS011;42891;50.006;21.964;2022-07-11T13:53:58;2.00;;;1.48;;
56999;SDS011;42891;50.006;21.964;2022-07-11T13:57:59;2.30;;;1.50;;
56999;SDS011;42891;50.006;21.964;2022-07-11T14:02:00;2.97;;;1.45;;
56999;SDS011;42891;50.006;21.964;2022-07-11T14:06:00;1.85;;;1.40;;
56999;SDS011;42891;50.006;21.964;2022-07-11T14:10:01;4.23;;;1.60;;
56999;SDS011;42891;50.006;21.964;2022-07-11T14:14:02;1.70;;;1.40;;
56999;SDS011;42891;50.006;21.964;2022-07-11T14:18:02;3.00;;;1.50;;
56999;SDS011;42891;50.006;21.964;2022-07-11T14:22:03;3.25;;;1.70;;
56999;SDS011;42891;50.006;21.964;2022-07-11T14:26:05;2.30;;;1.30;;
56999;SDS011;42891;50.006;21.964;2022-07-11T14:30:06;3.00;;;1.40;;
56999;SDS011;42891;50.006;21.964;2022-07-11T14:34:07;1.73;;;1.40;;
56999;SDS011;42891;50.006;21.964;2022-07-11T14:38:08;1.63;;;1.42;;
56999;SDS011;42891;50.006;21.964;2022-07-11T14:42:08;2.50;;;1.50;;
56999;SDS011;42891;50.006;21.964;2022-07-11T14:46:09;3.35;;;1.60;;
56999;SDS011;42891;50.006;21.964;2022-07-11T14:50:09;2.58;;;1.52;;
56999;SDS011;42891;50.006;21.964;2022-07-11T14:54:10;1.50;;;1.40;;
56999;SDS011;42891;50.006;21.964;2022-07-11T14:58:12;4.45;;;1.58;;
56999;SDS011;42891;50.006;21.964;2022-07-11T15:02:13;2.53;;;1.42;;
56999;SDS011;42891;50.006;21.964;2022-07-11T15:06:14;1.60;;;1.10;;
56999;SDS011;42891;50.006;21.964;2022-07-11T15:10:16;4.53;;;1.50;;
56999;SDS011;42891;50.006;21.964;2022-07-11T15:14:35;1.20;;;1.10;;
56999;SDS011;42891;50.006;21.964;2022-07-11T15:18:35;1.50;;;1.27;;
56999;SDS011;42891;50.006;21.964;2022-07-11T15:22:35;1.55;;;1.25;;
56999;SDS011;42891;50.006;21.964;2022-07-11T15:26:36;3.45;;;1.20;;
56999;SDS011;42891;50.006;21.964;2022-07-11T15:30:36;2.47;;;1.00;;
56999;SDS011;42891;50.006;21.964;2022-07-11T15:34:36;1.45;;;1.13;;
56999;SDS011;42891;50.006;21.964;2022-07-11T15:38:37;2.95;;;0.90;;
56999;SDS011;42891;50.006;21.964;2022-07-11T15:42:38;2.22;;;1.00;;
56999;SDS011;42891;50.006;21.964;2022-07-11T15:46:38;2.08;;;0.98;;
56999;SDS011;42891;50.006;21.964;2022-07-11T15:50:39;1.40;;;0.90;;
56999;SDS011;42891;50.006;21.964;2022-07-11T15:54:39;1.50;;;0.90;;
56999;SDS011;42891;50.006;21.964;2022-07-11T15:58:40;2.10;;;1.00;;
56999;SDS011;42891;50.006;21.964;2022-07-11T16:02:40;1.30;;;0.83;;
56999;SDS011;42891;50.006;21.964;2022-07-11T16:06:40;3.72;;;0.88;;
56999;SDS011;42891;50.006;21.964;2022-07-11T16:10:41;2.58;;;0.60;;
56999;SDS011;42891;50.006;21.964;2022-07-11T16:14:42;2.67;;;0.60;;
56999;SDS011;42891;50.006;21.964;2022-07-11T16:18:42;1.40;;;0.40;;
56999;SDS011;42891;50.006;21.964;2022-07-11T16:22:43;0.65;;;0.47;;
56999;SDS011;42891;50.006;21.964;2022-07-11T16:26:43;0.60;;;0.37;;
56999;SDS011;42891;50.006;21.964;2022-07-11T16:30:44;1.67;;;0.70;;
56999;SDS011;42891;50.006;21.964;2022-07-11T16:34:44;2.13;;;0.80;;
56999;SDS011;42891;50.006;21.964;2022-07-11T16:38:44;2.27;;;0.73;;
56999;SDS011;42891;50.006;21.964;2022-07-11T16:43:07;2.63;;;0.80;;
56999;SDS011;42891;50.006;21.964;2022-07-11T16:47:20;2.58;;;1.00;;
56999;SDS011;42891;50.006;21.964;2022-07-11T16:51:21;2.45;;;0.90;;
56999;SDS011;42891;50.006;21.964;2022-07-11T16:55:21;2.42;;;1.10;;
56999;SDS011;42891;50.006;21.964;2022-07-11T16:59:21;2.90;;;1.15;;
56999;SDS011;42891;50.006;21.964;2022-07-11T17:03:22;2.05;;;1.02;;
56999;SDS011;42891;50.006;21.964;2022-07-11T17:07:22;2.28;;;1.02;;
56999;SDS011;42891;50.006;21.964;2022-07-11T17:11:23;3.08;;;0.90;;
56999;SDS011;42891;50.006;21.964;2022-07-11T17:15:23;1.83;;;1.00;;
56999;SDS011;42891;50.006;21.964;2022-07-11T17:19:23;4.57;;;1.10;;
56999;SDS011;42891;50.006;21.964;2022-07-11T17:23:25;2.13;;;1.38;;
56999;SDS011;42891;50.006;21.964;2022-07-11T17:27:25;3.65;;;1.20;;
56999;SDS011;42891;50.006;21.964;2022-07-11T17:31:27;3.42;;;1.48;;
56999;SDS011;42891;50.006;21.964;2022-07-11T17:35:27;7.00;;;2.13;;
56999;SDS011;42891;50.006;21.964;2022-07-11T17:39:28;4.43;;;1.70;;
56999;SDS011;42891;50.006;21.964;2022-07-11T17:43:28;3.20;;;1.42;;
56999;SDS011;42891;50.006;21.964;2022-07-11T17:47:28;2.70;;;1.10;;
56999;SDS011;42891;50.006;21.964;2022-07-11T17:51:29;3.70;;;1.60;;
56999;SDS011;42891;50.006;21.964;2022-07-11T17:55:29;2.30;;;1.40;;
56999;SDS011;42891;50.006;21.964;2022-07-11T17:59:31;3.65;;;1.75;;
56999;SDS011;42891;50.006;21.964;2022-07-11T18:03:31;3.60;;;1.83;;
56999;SDS011;42891;50.006;21.964;2022-07-11T18:07:32;2.58;;;1.83;;
56999;SDS011;42891;50.006;21.964;2022-07-11T18:11:32;3.93;;;1.87;;
56999;SDS011;42891;50.006;21.964;2022-07-11T18:15:34;4.20;;;2.00;;
56999;SDS011;42891;50.006;21.964;2022-07-11T18:19:34;3.55;;;1.67;;
56999;SDS011;42891;50.006;21.964;2022-07-11T18:23:35;3.35;;;1.73;;
56999;SDS011;42891;50.006;21.964;2022-07-11T18:27:37;5.53;;;3.47;;
56999;SDS011;42891;50.006;21.964;2022-07-11T18:31:38;4.72;;;3.00;;
56999;SDS011;42891;50.006;21.964;2022-07-11T18:35:39;4.83;;;2.90;;
56999;SDS011;42891;50.006;21.964;2022-07-11T18:39:40;3.90;;;2.47;;
56999;SDS011;42891;50.006;21.964;2022-07-11T18:43:59;3.25;;;1.90;;
56999;SDS011;42891;50.006;21.964;2022-07-11T18:48:02;4.85;;;1.98;;
56999;SDS011;42891;50.006;21.964;2022-07-11T18:52:04;5.38;;;1.95;;
56999;SDS011;42891;50.006;21.964;2022-07-11T18:56:06;3.47;;;1.63;;
56999;SDS011;42891;50.006;21.964;2022-07-11T19:00:08;2.67;;;1.92;;
56999;SDS011;42891;50.006;21.964;2022-07-11T19:04:11;3.40;;;1.77;;
56999;SDS011;42891;50.006;21.964;2022-07-11T19:08:12;2.58;;;1.77;;
56999;SDS011;42891;50.006;21.964;2022-07-11T19:12:12;2.83;;;1.67;;
56999;SDS011;42891;50.006;21.964;2022-07-11T19:16:13;5.20;;;1.70;;
56999;SDS011;42891;50.006;21.964;2022-07-11T19:20:16;4.10;;;1.70;;
56999;SDS011;42891;50.006;21.964;2022-07-11T19:24:19;2.78;;;1.63;;
56999;SDS011;42891;50.006;21.964;2022-07-11T19:28:20;2.88;;;1.60;;
56999;SDS011;42891;50.006;21.964;2022-07-11T19:32:22;4.60;;;1.60;;
56999;SDS011;42891;50.006;21.964;2022-07-11T19:36:23;2.53;;;1.55;;
56999;SDS011;42891;50.006;21.964;2022-07-11T19:40:23;3.28;;;1.90;;
56999;SDS011;42891;50.006;21.964;2022-07-11T19:44:25;2.95;;;1.80;;
56999;SDS011;42891;50.006;21.964;2022-07-11T19:48:25;3.70;;;1.80;;
56999;SDS011;42891;50.006;21.964;2022-07-11T19:52:25;3.60;;;2.00;;
56999;SDS011;42891;50.006;21.964;2022-07-11T19:56:27;3.33;;;1.73;;
56999;SDS011;42891;50.006;21.964;2022-07-11T20:00:46;3.15;;;1.70;;
56999;SDS011;42891;50.006;21.964;2022-07-11T20:04:47;5.22;;;1.90;;
56999;SDS011;42891;50.006;21.964;2022-07-11T20:08:49;4.07;;;1.65;;
56999;SDS011;42891;50.006;21.964;2022-07-11T20:12:50;2.05;;;1.73;;
56999;SDS011;42891;50.006;21.964;2022-07-11T20:16:51;3.00;;;2.00;;
56999;SDS011;42891;50.006;21.964;2022-07-11T20:20:55;2.17;;;1.50;;
56999;SDS011;42891;50.006;21.964;2022-07-11T20:24:56;3.20;;;1.60;;
56999;SDS011;42891;50.006;21.964;2022-07-11T20:28:57;4.25;;;2.22;;
56999;SDS011;42891;50.006;21.964;2022-07-11T20:32:57;2.17;;;1.77;;
56999;SDS011;42891;50.006;21.964;2022-07-11T20:36:59;3.00;;;1.60;;
56999;SDS011;42891;50.006;21.964;2022-07-11T20:41:02;2.47;;;1.60;;
56999;SDS011;42891;50.006;21.964;2022-07-11T20:45:03;4.15;;;1.48;;
56999;SDS011;42891;50.006;21.964;2022-07-11T20:49:04;3.72;;;1.60;;
56999;SDS011;42891;50.006;21.964;2022-07-11T20:53:04;2.25;;;1.40;;
56999;SDS011;42891;50.006;21.964;2022-07-11T20:57:05;2.85;;;1.50;;
56999;SDS011;42891;50.006;21.964;2022-07-11T21:01:05;2.88;;;1.70;;
56999;SDS011;42891;50.006;21.964;2022-07-11T21:05:05;3.60;;;2.10;;
56999;SDS011;42891;50.006;21.964;2022-07-11T21:09:06;3.28;;;1.90;;
56999;SDS011;42891;50.006;21.964;2022-07-11T21:13:06;3.85;;;1.90;;
56999;SDS011;42891;50.006;21.964;2022-07-11T21:17:07;2.80;;;1.73;;
56999;SDS011;42891;50.006;21.964;2022-07-11T21:21:07;2.00;;;1.80;;
56999;SDS011;42891;50.006;21.964;2022-07-11T21:25:08;2.17;;;1.75;;
56999;SDS011;42891;50.006;21.964;2022-07-11T21:29:08;3.53;;;1.70;;
56999;SDS011;42891;50.006;21.964;2022-07-11T21:33:10;2.97;;;1.70;;
56999;SDS011;42891;50.006;21.964;2022-07-11T21:37:10;2.05;;;1.48;;
56999;SDS011;42891;50.006;21.964;2022-07-11T21:41:10;2.53;;;1.53;;
56999;SDS011;42891;50.006;21.964;2022-07-11T21:45:11;3.10;;;1.83;;
56999;SDS011;42891;50.006;21.964;2022-07-11T21:49:11;3.80;;;2.10;;
56999;SDS011;42891;50.006;21.964;2022-07-11T21:53:11;3.77;;;2.00;;
56999;SDS011;42891;50.006;21.964;2022-07-11T21:57:12;4.03;;;1.90;;
56999;SDS011;42891;50.006;21.964;2022-07-11T22:01:12;3.03;;;2.20;;
56999;SDS011;42891;50.006;21.964;2022-07-11T22:05:12;5.65;;;1.92;;
56999;SDS011;42891;50.006;21.964;2022-07-11T22:09:12;6.05;;;2.10;;
56999;SDS011;42891;50.006;21.964;2022-07-11T22:13:13;3.15;;;2.10;;
56999;SDS011;42891;50.006;21.964;2022-07-11T22:17:13;4.15;;;1.98;;
56999;SDS011;42891;50.006;21.964;2022-07-11T22:21:14;4.93;;;2.37;;
56999;SDS011;42891;50.006;21.964;2022-07-11T22:25:14;2.83;;;1.98;;
56999;SDS011;42891;50.006;21.964;2022-07-11T22:29:14;2.73;;;1.80;;
56999;SDS011;42891;50.006;21.964;2022-07-11T22:33:14;3.13;;;1.55;;
56999;SDS011;42891;50.006;21.964;2022-07-11T22:37:15;5.70;;;1.70;;
56999;SDS011;42891;50.006;21.964;2022-07-11T22:41:15;2.57;;;1.60;;
56999;SDS011;42891;50.006;21.964;2022-07-11T22:45:15;2.42;;;1.70;;
56999;SDS011;42891;50.006;21.964;2022-07-11T22:49:16;2.70;;;1.73;;
56999;SDS011;42891;50.006;21.964;2022-07-11T22:53:16;3.40;;;1.77;;
56999;SDS011;42891;50.006;21.964;2022-07-11T22:57:16;3.95;;;1.88;;
56999;SDS011;42891;50.006;21.964;2022-07-11T23:01:17;3.30;;;1.80;;
56999;SDS011;42891;50.006;21.964;2022-07-11T23:05:17;2.85;;;1.73;;
56999;SDS011;42891;50.006;21.964;2022-07-11T23:09:18;3.20;;;1.75;;
56999;SDS011;42891;50.006;21.964;2022-07-11T23:13:18;2.47;;;1.60;;
56999;SDS011;42891;50.006;21.964;2022-07-11T23:17:18;4.40;;;1.85;;
56999;SDS011;42891;50.006;21.964;2022-07-11T23:21:18;2.47;;;1.90;;
56999;SDS011;42891;50.006;21.964;2022-07-11T23:25:21;2.63;;;1.50;;
56999;SDS011;42891;50.006;21.964;2022-07-11T23:29:21;3.50;;;1.30;;
56999;SDS011;42891;50.006;21.964;2022-07-11T23:33:22;3.78;;;1.60;;
56999;SDS011;42891;50.006;21.964;2022-07-11T23:37:22;2.90;;;1.50;;
56999;SDS011;42891;50.006;21.964;2022-07-11T23:41:22;2.00;;;1.40;;
56999;SDS011;42891;50.006;21.964;2022-07-11T23:45:23;3.00;;;1.60;;
56999;SDS011;42891;50.006;21.964;2022-07-11T23:49:23;2.20;;;1.40;;
56999;SDS011;42891;50.006;21.964;2022-07-11T23:53:29;2.80;;;1.58;;
56999;SDS011;42891;50.006;21.964;2022-07-11T23:57:29;2.42;;;1.42;;
